sensor_id;sensor_type;location;lat;lon;timestamp;P1;durP1;ratioP1;P2;durP2;ratioP2
54197;SDS011;40105;52.366;17.000;2023-04-24T00:00:21;21.40;;;12.48;;
54197;SDS011;40105;52.366;17.000;2023-04-24T00:02:46;22.17;;;13.27;;
54197;SDS011;40105;52.366;17.000;2023-04-24T00:05:15;20.15;;;12.88;;
54197;SDS011;40105;52.366;17.000;2023-04-24T00:07:42;22.10;;;11.88;;
54197;SDS011;40105;52.366;17.000;2023-04-24T00:10:07;24.53;;;13.30;;
54197;SDS011;40105;52.366;17.000;2023-04-24T00:12:33;24.88;;;12.98;;
54197;SDS011;40105;52.366;17.000;2023-04-24T00:14:59;25.73;;;12.17;;
54197;SDS011;40105;52.366;17.000;2023-04-24T00:17:24;19.15;;;11.52;;
54197;SDS011;40105;52.366;17.000;2023-04-24T00:19:49;26.33;;;12.77;;
54197;SDS011;40105;52.366;17.000;2023-04-24T00:22:23;22.05;;;12.82;;
54197;SDS011;40105;52.366;17.000;2023-04-24T00:24:48;19.98;;;11.55;;
54197;SDS011;40105;52.366;17.000;2023-04-24T00:27:14;34.88;;;14.88;;
54197;SDS011;40105;52.366;17.000;2023-04-24T00:29:39;21.63;;;12.70;;
54197;SDS011;40105;52.366;17.000;2023-04-24T00:32:04;24.03;;;13.37;;
54197;SDS011;40105;52.366;17.000;2023-04-24T00:34:29;18.90;;;13.07;;
54197;SDS011;40105;52.366;17.000;2023-04-24T00:36:57;20.63;;;11.57;;
54197;SDS011;40105;52.366;17.000;2023-04-24T00:39:22;22.13;;;12.57;;
54197;SDS011;40105;52.366;17.000;2023-04-24T00:41:47;23.27;;;12.23;;
54197;SDS011;40105;52.366;17.000;2023-04-24T00:44:13;27.73;;;12.83;;
54197;SDS011;40105;52.366;17.000;2023-04-24T00:46:38;24.48;;;13.00;;
54197;SDS011;40105;52.366;17.000;2023-04-24T00:49:04;20.63;;;11.43;;
54197;SDS011;40105;52.366;17.000;2023-04-24T00:51:29;20.83;;;13.05;;
54197;SDS011;40105;52.366;17.000;2023-04-24T00:53:55;27.95;;;12.40;;
54197;SDS011;40105;52.366;17.000;2023-04-24T00:56:20;27.00;;;13.57;;
54197;SDS011;40105;52.366;17.000;2023-04-24T00:58:46;29.13;;;13.83;;
54197;SDS011;40105;52.366;17.000;2023-04-24T01:01:12;29.23;;;13.18;;
54197;SDS011;40105;52.366;17.000;2023-04-24T01:03:37;27.92;;;12.10;;
54197;SDS011;40105;52.366;17.000;2023-04-24T01:06:02;20.10;;;12.30;;
54197;SDS011;40105;52.366;17.000;2023-04-24T01:08:28;26.48;;;13.27;;
54197;SDS011;40105;52.366;17.000;2023-04-24T01:10:53;25.77;;;11.80;;
54197;SDS011;40105;52.366;17.000;2023-04-24T01:13:19;22.83;;;12.35;;
54197;SDS011;40105;52.366;17.000;2023-04-24T01:15:45;25.90;;;12.45;;
54197;SDS011;40105;52.366;17.000;2023-04-24T01:18:10;25.15;;;12.38;;
54197;SDS011;40105;52.366;17.000;2023-04-24T01:20:35;20.00;;;11.77;;
54197;SDS011;40105;52.366;17.000;2023-04-24T01:23:01;25.60;;;13.23;;
54197;SDS011;40105;52.366;17.000;2023-04-24T01:25:27;27.92;;;13.38;;
54197;SDS011;40105;52.366;17.000;2023-04-24T01:27:53;25.88;;;13.13;;
54197;SDS011;40105;52.366;17.000;2023-04-24T01:30:18;21.10;;;12.03;;
54197;SDS011;40105;52.366;17.000;2023-04-24T01:32:43;29.90;;;12.77;;
54197;SDS011;40105;52.366;17.000;2023-04-24T01:35:09;29.48;;;14.75;;
54197;SDS011;40105;52.366;17.000;2023-04-24T01:37:35;23.88;;;13.82;;
54197;SDS011;40105;52.366;17.000;2023-04-24T01:40:02;31.38;;;14.68;;
54197;SDS011;40105;52.366;17.000;2023-04-24T01:42:28;25.05;;;13.32;;
54197;SDS011;40105;52.366;17.000;2023-04-24T01:44:54;35.10;;;14.38;;
54197;SDS011;40105;52.366;17.000;2023-04-24T01:47:19;20.63;;;13.17;;
54197;SDS011;40105;52.366;17.000;2023-04-24T01:49:45;23.45;;;12.20;;
54197;SDS011;40105;52.366;17.000;2023-04-24T01:52:10;18.95;;;12.45;;
54197;SDS011;40105;52.366;17.000;2023-04-24T01:54:35;24.70;;;12.73;;
54197;SDS011;40105;52.366;17.000;2023-04-24T01:57:00;21.57;;;12.37;;
54197;SDS011;40105;52.366;17.000;2023-04-24T01:59:26;22.77;;;12.70;;
54197;SDS011;40105;52.366;17.000;2023-04-24T02:01:52;24.38;;;12.90;;
54197;SDS011;40105;52.366;17.000;2023-04-24T02:04:17;24.17;;;12.70;;
54197;SDS011;40105;52.366;17.000;2023-04-24T02:06:43;23.97;;;12.10;;
54197;SDS011;40105;52.366;17.000;2023-04-24T02:09:08;28.77;;;13.83;;
54197;SDS011;40105;52.366;17.000;2023-04-24T02:11:33;27.77;;;13.30;;
54197;SDS011;40105;52.366;17.000;2023-04-24T02:13:58;29.77;;;12.90;;
54197;SDS011;40105;52.366;17.000;2023-04-24T02:16:23;18.33;;;11.87;;
54197;SDS011;40105;52.366;17.000;2023-04-24T02:18:48;25.47;;;12.00;;
54197;SDS011;40105;52.366;17.000;2023-04-24T02:21:14;31.77;;;12.27;;
54197;SDS011;40105;52.366;17.000;2023-04-24T02:23:39;27.50;;;13.47;;
54197;SDS011;40105;52.366;17.000;2023-04-24T02:26:05;19.48;;;12.35;;
54197;SDS011;40105;52.366;17.000;2023-04-24T02:28:30;22.10;;;11.55;;
54197;SDS011;40105;52.366;17.000;2023-04-24T02:30:55;19.10;;;11.90;;
54197;SDS011;40105;52.366;17.000;2023-04-24T02:33:20;24.00;;;12.43;;
54197;SDS011;40105;52.366;17.000;2023-04-24T02:35:45;23.43;;;11.57;;
54197;SDS011;40105;52.366;17.000;2023-04-24T02:38:11;19.03;;;12.07;;
54197;SDS011;40105;52.366;17.000;2023-04-24T02:40:36;23.00;;;11.33;;
54197;SDS011;40105;52.366;17.000;2023-04-24T02:43:01;23.87;;;12.00;;
54197;SDS011;40105;52.366;17.000;2023-04-24T02:45:26;20.47;;;12.33;;
54197;SDS011;40105;52.366;17.000;2023-04-24T02:47:51;21.50;;;11.60;;
54197;SDS011;40105;52.366;17.000;2023-04-24T02:50:16;26.17;;;12.40;;
54197;SDS011;40105;52.366;17.000;2023-04-24T02:52:42;23.57;;;12.07;;
54197;SDS011;40105;52.366;17.000;2023-04-24T02:55:07;21.07;;;12.13;;
54197;SDS011;40105;52.366;17.000;2023-04-24T02:57:33;24.65;;;11.55;;
54197;SDS011;40105;52.366;17.000;2023-04-24T02:59:58;22.25;;;10.73;;
54197;SDS011;40105;52.366;17.000;2023-04-24T03:02:23;23.17;;;11.50;;
54197;SDS011;40105;52.366;17.000;2023-04-24T03:04:48;17.48;;;10.95;;
54197;SDS011;40105;52.366;17.000;2023-04-24T03:07:13;22.00;;;10.87;;
54197;SDS011;40105;52.366;17.000;2023-04-24T03:09:39;24.17;;;11.27;;
54197;SDS011;40105;52.366;17.000;2023-04-24T03:12:04;24.02;;;12.02;;
54197;SDS011;40105;52.366;17.000;2023-04-24T03:14:30;17.50;;;10.60;;
54197;SDS011;40105;52.366;17.000;2023-04-24T03:16:56;16.17;;;11.10;;
54197;SDS011;40105;52.366;17.000;2023-04-24T03:19:21;17.83;;;10.77;;
54197;SDS011;40105;52.366;17.000;2023-04-24T03:21:46;19.97;;;11.27;;
54197;SDS011;40105;52.366;17.000;2023-04-24T03:24:11;20.37;;;10.90;;
54197;SDS011;40105;52.366;17.000;2023-04-24T03:26:37;22.87;;;10.70;;
54197;SDS011;40105;52.366;17.000;2023-04-24T03:29:02;22.57;;;11.73;;
54197;SDS011;40105;52.366;17.000;2023-04-24T03:31:27;18.80;;;10.10;;
54197;SDS011;40105;52.366;17.000;2023-04-24T03:33:52;17.30;;;10.57;;
54197;SDS011;40105;52.366;17.000;2023-04-24T03:36:17;19.17;;;10.17;;
54197;SDS011;40105;52.366;17.000;2023-04-24T03:38:44;19.23;;;10.38;;
54197;SDS011;40105;52.366;17.000;2023-04-24T03:41:09;24.13;;;10.43;;
54197;SDS011;40105;52.366;17.000;2023-04-24T03:43:34;16.97;;;10.20;;
54197;SDS011;40105;52.366;17.000;2023-04-24T03:46:00;24.47;;;10.47;;
54197;SDS011;40105;52.366;17.000;2023-04-24T03:48:25;20.23;;;9.98;;
54197;SDS011;40105;52.366;17.000;2023-04-24T03:50:50;19.37;;;9.90;;
54197;SDS011;40105;52.366;17.000;2023-04-24T03:53:15;21.60;;;11.53;;
54197;SDS011;40105;52.366;17.000;2023-04-24T03:55:40;24.55;;;12.05;;
54197;SDS011;40105;52.366;17.000;2023-04-24T03:58:06;27.00;;;13.00;;
54197;SDS011;40105;52.366;17.000;2023-04-24T04:00:31;19.63;;;12.73;;
54197;SDS011;40105;52.366;17.000;2023-04-24T04:02:57;23.80;;;13.15;;
54197;SDS011;40105;52.366;17.000;2023-04-24T04:05:22;36.33;;;14.33;;
54197;SDS011;40105;52.366;17.000;2023-04-24T04:07:47;26.80;;;14.35;;
54197;SDS011;40105;52.366;17.000;2023-04-24T04:10:12;26.20;;;13.53;;
54197;SDS011;40105;52.366;17.000;2023-04-24T04:12:37;20.40;;;13.10;;
54197;SDS011;40105;52.366;17.000;2023-04-24T04:15:03;27.00;;;14.70;;
54197;SDS011;40105;52.366;17.000;2023-04-24T04:17:28;26.25;;;14.85;;
54197;SDS011;40105;52.366;17.000;2023-04-24T04:19:53;32.97;;;15.67;;
54197;SDS011;40105;52.366;17.000;2023-04-24T04:22:18;29.85;;;15.10;;
54197;SDS011;40105;52.366;17.000;2023-04-24T04:24:44;24.97;;;14.60;;
54197;SDS011;40105;52.366;17.000;2023-04-24T04:27:09;26.23;;;15.10;;
54197;SDS011;40105;52.366;17.000;2023-04-24T04:29:34;28.03;;;14.90;;
54197;SDS011;40105;52.366;17.000;2023-04-24T04:32:00;28.35;;;14.93;;
54197;SDS011;40105;52.366;17.000;2023-04-24T04:34:26;33.00;;;14.57;;
54197;SDS011;40105;52.366;17.000;2023-04-24T04:36:51;25.33;;;15.03;;
54197;SDS011;40105;52.366;17.000;2023-04-24T04:39:17;27.05;;;14.50;;
54197;SDS011;40105;52.366;17.000;2023-04-24T04:41:43;22.63;;;12.82;;
54197;SDS011;40105;52.366;17.000;2023-04-24T04:44:09;25.10;;;13.30;;
54197;SDS011;40105;52.366;17.000;2023-04-24T04:46:34;20.33;;;12.13;;
54197;SDS011;40105;52.366;17.000;2023-04-24T04:49:02;28.05;;;13.45;;
54197;SDS011;40105;52.366;17.000;2023-04-24T04:51:27;29.85;;;13.63;;
54197;SDS011;40105;52.366;17.000;2023-04-24T04:53:53;33.50;;;13.50;;
54197;SDS011;40105;52.366;17.000;2023-04-24T04:56:18;23.47;;;12.73;;
54197;SDS011;40105;52.366;17.000;2023-04-24T04:58:43;23.37;;;12.13;;
54197;SDS011;40105;52.366;17.000;2023-04-24T05:01:08;22.30;;;12.27;;
54197;SDS011;40105;52.366;17.000;2023-04-24T05:03:33;19.77;;;11.77;;
54197;SDS011;40105;52.366;17.000;2023-04-24T05:05:59;21.57;;;13.40;;
54197;SDS011;40105;52.366;17.000;2023-04-24T05:08:24;21.73;;;12.88;;
54197;SDS011;40105;52.366;17.000;2023-04-24T05:10:50;21.50;;;13.45;;
54197;SDS011;40105;52.366;17.000;2023-04-24T05:13:15;22.23;;;12.27;;
54197;SDS011;40105;52.366;17.000;2023-04-24T05:15:40;29.08;;;16.20;;
54197;SDS011;40105;52.366;17.000;2023-04-24T05:18:05;34.43;;;17.10;;
54197;SDS011;40105;52.366;17.000;2023-04-24T05:20:31;40.20;;;16.50;;
54197;SDS011;40105;52.366;17.000;2023-04-24T05:22:56;27.40;;;15.20;;
54197;SDS011;40105;52.366;17.000;2023-04-24T05:25:21;22.77;;;15.00;;
54197;SDS011;40105;52.366;17.000;2023-04-24T05:27:46;27.07;;;15.80;;
54197;SDS011;40105;52.366;17.000;2023-04-24T05:30:11;26.07;;;15.17;;
54197;SDS011;40105;52.366;17.000;2023-04-24T05:32:37;30.02;;;15.68;;
54197;SDS011;40105;52.366;17.000;2023-04-24T05:35:02;29.03;;;15.60;;
54197;SDS011;40105;52.366;17.000;2023-04-24T05:37:27;29.73;;;15.77;;
54197;SDS011;40105;52.366;17.000;2023-04-24T05:39:52;29.60;;;16.13;;
54197;SDS011;40105;52.366;17.000;2023-04-24T05:42:18;28.48;;;18.00;;
54197;SDS011;40105;52.366;17.000;2023-04-24T05:44:43;35.33;;;19.90;;
54197;SDS011;40105;52.366;17.000;2023-04-24T05:47:08;28.83;;;17.98;;
54197;SDS011;40105;52.366;17.000;2023-04-24T05:49:33;25.20;;;14.17;;
54197;SDS011;40105;52.366;17.000;2023-04-24T05:51:58;24.73;;;13.43;;
54197;SDS011;40105;52.366;17.000;2023-04-24T05:54:24;20.67;;;12.57;;
54197;SDS011;40105;52.366;17.000;2023-04-24T05:56:49;23.30;;;12.98;;
54197;SDS011;40105;52.366;17.000;2023-04-24T05:59:15;25.63;;;13.00;;
54197;SDS011;40105;52.366;17.000;2023-04-24T06:01:40;26.03;;;12.53;;
54197;SDS011;40105;52.366;17.000;2023-04-24T06:04:05;25.13;;;12.73;;
54197;SDS011;40105;52.366;17.000;2023-04-24T06:06:31;19.95;;;12.43;;
54197;SDS011;40105;52.366;17.000;2023-04-24T06:08:57;21.33;;;12.43;;
54197;SDS011;40105;52.366;17.000;2023-04-24T06:11:23;21.20;;;11.82;;
54197;SDS011;40105;52.366;17.000;2023-04-24T06:13:49;17.75;;;12.00;;
54197;SDS011;40105;52.366;17.000;2023-04-24T06:16:15;18.98;;;12.00;;
54197;SDS011;40105;52.366;17.000;2023-04-24T06:18:40;20.00;;;12.37;;
54197;SDS011;40105;52.366;17.000;2023-04-24T06:21:05;15.93;;;10.43;;
54197;SDS011;40105;52.366;17.000;2023-04-24T06:23:31;18.90;;;10.65;;
54197;SDS011;40105;52.366;17.000;2023-04-24T06:25:57;20.02;;;11.05;;
54197;SDS011;40105;52.366;17.000;2023-04-24T06:28:22;22.40;;;11.30;;
54197;SDS011;40105;52.366;17.000;2023-04-24T06:30:48;22.05;;;12.77;;
54197;SDS011;40105;52.366;17.000;2023-04-24T06:33:13;20.17;;;11.03;;
54197;SDS011;40105;52.366;17.000;2023-04-24T06:35:38;18.73;;;11.23;;
54197;SDS011;40105;52.366;17.000;2023-04-24T06:38:03;26.33;;;10.97;;
54197;SDS011;40105;52.366;17.000;2023-04-24T06:40:28;30.15;;;11.20;;
54197;SDS011;40105;52.366;17.000;2023-04-24T06:42:54;19.77;;;10.53;;
54197;SDS011;40105;52.366;17.000;2023-04-24T06:45:19;16.03;;;10.47;;
54197;SDS011;40105;52.366;17.000;2023-04-24T06:47:44;18.75;;;10.23;;
54197;SDS011;40105;52.366;17.000;2023-04-24T06:50:10;21.00;;;10.23;;
54197;SDS011;40105;52.366;17.000;2023-04-24T06:52:36;14.55;;;9.30;;
54197;SDS011;40105;52.366;17.000;2023-04-24T06:55:02;21.37;;;9.20;;
54197;SDS011;40105;52.366;17.000;2023-04-24T06:57:27;16.42;;;10.07;;
54197;SDS011;40105;52.366;17.000;2023-04-24T06:59:52;20.50;;;9.50;;
54197;SDS011;40105;52.366;17.000;2023-04-24T07:02:18;18.73;;;10.63;;
54197;SDS011;40105;52.366;17.000;2023-04-24T07:04:43;17.63;;;9.77;;
54197;SDS011;40105;52.366;17.000;2023-04-24T07:07:08;15.93;;;8.82;;
54197;SDS011;40105;52.366;17.000;2023-04-24T07:09:34;18.95;;;9.65;;
54197;SDS011;40105;52.366;17.000;2023-04-24T07:12:03;19.95;;;10.30;;
54197;SDS011;40105;52.366;17.000;2023-04-24T07:14:28;16.93;;;10.93;;
54197;SDS011;40105;52.366;17.000;2023-04-24T07:16:53;15.53;;;9.13;;
54197;SDS011;40105;52.366;17.000;2023-04-24T07:19:19;17.67;;;9.67;;
54197;SDS011;40105;52.366;17.000;2023-04-24T07:21:44;20.47;;;9.83;;
54197;SDS011;40105;52.366;17.000;2023-04-24T07:24:10;17.13;;;9.38;;
54197;SDS011;40105;52.366;17.000;2023-04-24T07:26:36;19.17;;;10.07;;
54197;SDS011;40105;52.366;17.000;2023-04-24T07:29:01;18.33;;;8.95;;
54197;SDS011;40105;52.366;17.000;2023-04-24T07:31:26;18.97;;;9.40;;
54197;SDS011;40105;52.366;17.000;2023-04-24T07:33:52;15.02;;;7.93;;
54197;SDS011;40105;52.366;17.000;2023-04-24T07:36:17;13.53;;;8.57;;
54197;SDS011;40105;52.366;17.000;2023-04-24T07:38:44;13.70;;;8.57;;
54197;SDS011;40105;52.366;17.000;2023-04-24T07:41:09;16.90;;;8.18;;
54197;SDS011;40105;52.366;17.000;2023-04-24T07:43:35;14.07;;;8.00;;
54197;SDS011;40105;52.366;17.000;2023-04-24T07:46:00;14.23;;;7.93;;
54197;SDS011;40105;52.366;17.000;2023-04-24T07:48:25;28.33;;;8.13;;
54197;SDS011;40105;52.366;17.000;2023-04-24T07:50:51;16.33;;;8.88;;
54197;SDS011;40105;52.366;17.000;2023-04-24T07:53:16;26.73;;;8.13;;
54197;SDS011;40105;52.366;17.000;2023-04-24T07:55:41;14.23;;;8.10;;
54197;SDS011;40105;52.366;17.000;2023-04-24T07:58:06;15.17;;;8.00;;
54197;SDS011;40105;52.366;17.000;2023-04-24T08:00:32;15.67;;;9.53;;
54197;SDS011;40105;52.366;17.000;2023-04-24T08:02:57;10.17;;;6.60;;
54197;SDS011;40105;52.366;17.000;2023-04-24T08:05:22;11.85;;;7.57;;
54197;SDS011;40105;52.366;17.000;2023-04-24T08:07:48;14.63;;;6.78;;
54197;SDS011;40105;52.366;17.000;2023-04-24T08:10:15;12.52;;;6.07;;
54197;SDS011;40105;52.366;17.000;2023-04-24T08:12:40;12.37;;;7.27;;
54197;SDS011;40105;52.366;17.000;2023-04-24T08:15:05;11.77;;;6.87;;
54197;SDS011;40105;52.366;17.000;2023-04-24T08:17:31;12.70;;;7.38;;
54197;SDS011;40105;52.366;17.000;2023-04-24T08:19:56;11.43;;;8.27;;
54197;SDS011;40105;52.366;17.000;2023-04-24T08:22:26;23.63;;;7.18;;
54197;SDS011;40105;52.366;17.000;2023-04-24T08:24:51;10.38;;;6.63;;
54197;SDS011;40105;52.366;17.000;2023-04-24T08:27:16;11.70;;;7.40;;
54197;SDS011;40105;52.366;17.000;2023-04-24T08:29:42;10.60;;;6.20;;
54197;SDS011;40105;52.366;17.000;2023-04-24T08:32:07;15.70;;;6.83;;
54197;SDS011;40105;52.366;17.000;2023-04-24T08:34:32;14.13;;;7.10;;
54197;SDS011;40105;52.366;17.000;2023-04-24T08:36:57;13.43;;;6.53;;
54197;SDS011;40105;52.366;17.000;2023-04-24T08:39:22;14.73;;;9.70;;
54197;SDS011;40105;52.366;17.000;2023-04-24T08:41:48;15.17;;;7.43;;
54197;SDS011;40105;52.366;17.000;2023-04-24T08:44:13;13.93;;;7.90;;
54197;SDS011;40105;52.366;17.000;2023-04-24T08:46:40;17.02;;;7.53;;
54197;SDS011;40105;52.366;17.000;2023-04-24T08:49:05;15.27;;;7.93;;
54197;SDS011;40105;52.366;17.000;2023-04-24T08:51:31;22.27;;;8.90;;
54197;SDS011;40105;52.366;17.000;2023-04-24T08:53:56;15.03;;;8.20;;
54197;SDS011;40105;52.366;17.000;2023-04-24T08:56:22;13.60;;;8.50;;
54197;SDS011;40105;52.366;17.000;2023-04-24T08:58:48;18.45;;;8.40;;
54197;SDS011;40105;52.366;17.000;2023-04-24T09:01:14;14.70;;;8.27;;
54197;SDS011;40105;52.366;17.000;2023-04-24T09:03:39;16.70;;;10.13;;
54197;SDS011;40105;52.366;17.000;2023-04-24T09:06:05;15.60;;;7.13;;
54197;SDS011;40105;52.366;17.000;2023-04-24T09:08:30;65.13;;;29.42;;
54197;SDS011;40105;52.366;17.000;2023-04-24T09:10:56;30.65;;;14.75;;
54197;SDS011;40105;52.366;17.000;2023-04-24T09:13:23;15.57;;;8.57;;
54197;SDS011;40105;52.366;17.000;2023-04-24T09:15:49;15.70;;;8.10;;
54197;SDS011;40105;52.366;17.000;2023-04-24T09:18:14;20.40;;;9.73;;
54197;SDS011;40105;52.366;17.000;2023-04-24T09:20:58;17.50;;;9.37;;
54197;SDS011;40105;52.366;17.000;2023-04-24T09:23:25;15.60;;;8.38;;
54197;SDS011;40105;52.366;17.000;2023-04-24T09:25:53;15.00;;;8.10;;
54197;SDS011;40105;52.366;17.000;2023-04-24T09:28:19;14.65;;;8.80;;
54197;SDS011;40105;52.366;17.000;2023-04-24T09:30:44;16.33;;;8.47;;
54197;SDS011;40105;52.366;17.000;2023-04-24T09:33:13;14.53;;;8.93;;
54197;SDS011;40105;52.366;17.000;2023-04-24T09:35:50;16.15;;;8.40;;
54197;SDS011;40105;52.366;17.000;2023-04-24T09:38:16;16.38;;;8.35;;
54197;SDS011;40105;52.366;17.000;2023-04-24T09:40:41;15.50;;;8.57;;
54197;SDS011;40105;52.366;17.000;2023-04-24T09:43:09;15.73;;;8.43;;
54197;SDS011;40105;52.366;17.000;2023-04-24T09:45:35;17.52;;;7.85;;
54197;SDS011;40105;52.366;17.000;2023-04-24T09:48:00;15.07;;;7.78;;
54197;SDS011;40105;52.366;17.000;2023-04-24T09:50:26;15.63;;;8.20;;
54197;SDS011;40105;52.366;17.000;2023-04-24T09:52:58;10.77;;;7.40;;
54197;SDS011;40105;52.366;17.000;2023-04-24T09:55:23;15.57;;;6.93;;
54197;SDS011;40105;52.366;17.000;2023-04-24T09:57:55;15.18;;;6.90;;
54197;SDS011;40105;52.366;17.000;2023-04-24T10:02:49;15.55;;;6.22;;
54197;SDS011;40105;52.366;17.000;2023-04-24T10:05:14;10.18;;;5.05;;
54197;SDS011;40105;52.366;17.000;2023-04-24T10:07:40;13.18;;;5.38;;
54197;SDS011;40105;52.366;17.000;2023-04-24T10:10:05;11.53;;;6.33;;
54197;SDS011;40105;52.366;17.000;2023-04-24T10:12:31;15.02;;;6.32;;
54197;SDS011;40105;52.366;17.000;2023-04-24T10:14:56;16.55;;;6.35;;
54197;SDS011;40105;52.366;17.000;2023-04-24T10:17:22;17.58;;;6.43;;
54197;SDS011;40105;52.366;17.000;2023-04-24T10:19:48;12.55;;;7.10;;
54197;SDS011;40105;52.366;17.000;2023-04-24T10:22:15;10.00;;;6.78;;
54197;SDS011;40105;52.366;17.000;2023-04-24T10:24:41;9.48;;;6.97;;
54197;SDS011;40105;52.366;17.000;2023-04-24T10:27:07;16.88;;;6.60;;
54197;SDS011;40105;52.366;17.000;2023-04-24T10:29:33;15.65;;;4.95;;
54197;SDS011;40105;52.366;17.000;2023-04-24T10:32:00;11.43;;;5.32;;
54197;SDS011;40105;52.366;17.000;2023-04-24T10:34:25;6.97;;;4.50;;
54197;SDS011;40105;52.366;17.000;2023-04-24T10:36:51;7.00;;;4.33;;
54197;SDS011;40105;52.366;17.000;2023-04-24T10:39:17;12.73;;;6.22;;
54197;SDS011;40105;52.366;17.000;2023-04-24T10:41:43;9.07;;;4.53;;
54197;SDS011;40105;52.366;17.000;2023-04-24T10:44:09;8.82;;;5.18;;
54197;SDS011;40105;52.366;17.000;2023-04-24T10:46:35;9.60;;;4.90;;
54197;SDS011;40105;52.366;17.000;2023-04-24T10:49:03;6.90;;;4.30;;
54197;SDS011;40105;52.366;17.000;2023-04-24T10:51:50;12.57;;;5.15;;
54197;SDS011;40105;52.366;17.000;2023-04-24T10:56:49;7.55;;;4.95;;
54197;SDS011;40105;52.366;17.000;2023-04-24T10:59:23;12.57;;;4.70;;
54197;SDS011;40105;52.366;17.000;2023-04-24T11:01:52;10.43;;;5.32;;
54197;SDS011;40105;52.366;17.000;2023-04-24T11:04:21;9.30;;;5.55;;
54197;SDS011;40105;52.366;17.000;2023-04-24T11:06:53;7.30;;;5.18;;
54197;SDS011;40105;52.366;17.000;2023-04-24T11:09:18;8.63;;;5.20;;
54197;SDS011;40105;52.366;17.000;2023-04-24T11:11:45;14.15;;;5.47;;
54197;SDS011;40105;52.366;17.000;2023-04-24T11:14:13;11.50;;;5.40;;
54197;SDS011;40105;52.366;17.000;2023-04-24T11:16:42;12.15;;;5.00;;
54197;SDS011;40105;52.366;17.000;2023-04-24T11:21:41;7.13;;;4.65;;
54197;SDS011;40105;52.366;17.000;2023-04-24T11:26:51;7.93;;;4.10;;
54197;SDS011;40105;52.366;17.000;2023-04-24T11:29:16;11.90;;;4.15;;
54197;SDS011;40105;52.366;17.000;2023-04-24T11:31:44;14.80;;;3.42;;
54197;SDS011;40105;52.366;17.000;2023-04-24T11:34:14;10.13;;;3.67;;
54197;SDS011;40105;52.366;17.000;2023-04-24T11:36:44;7.80;;;2.58;;
54197;SDS011;40105;52.366;17.000;2023-04-24T11:39:10;5.60;;;2.78;;
54197;SDS011;40105;52.366;17.000;2023-04-24T11:41:36;5.18;;;2.95;;
54197;SDS011;40105;52.366;17.000;2023-04-24T11:44:02;8.90;;;2.90;;
54197;SDS011;40105;52.366;17.000;2023-04-24T11:46:28;3.95;;;2.50;;
54197;SDS011;40105;52.366;17.000;2023-04-24T11:48:54;3.83;;;2.25;;
54197;SDS011;40105;52.366;17.000;2023-04-24T11:51:19;3.90;;;2.37;;
54197;SDS011;40105;52.366;17.000;2023-04-24T11:53:44;5.97;;;2.30;;
54197;SDS011;40105;52.366;17.000;2023-04-24T11:56:10;7.57;;;2.70;;
54197;SDS011;40105;52.366;17.000;2023-04-24T11:58:35;9.13;;;3.93;;
54197;SDS011;40105;52.366;17.000;2023-04-24T12:01:01;6.15;;;3.20;;
54197;SDS011;40105;52.366;17.000;2023-04-24T12:03:26;7.67;;;3.00;;
54197;SDS011;40105;52.366;17.000;2023-04-24T12:05:51;6.90;;;2.80;;
54197;SDS011;40105;52.366;17.000;2023-04-24T12:08:29;8.57;;;2.30;;
54197;SDS011;40105;52.366;17.000;2023-04-24T12:10:54;4.30;;;2.17;;
54197;SDS011;40105;52.366;17.000;2023-04-24T12:13:19;4.80;;;2.77;;
54197;SDS011;40105;52.366;17.000;2023-04-24T12:15:45;4.95;;;2.65;;
54197;SDS011;40105;52.366;17.000;2023-04-24T12:18:11;4.93;;;3.23;;
54197;SDS011;40105;52.366;17.000;2023-04-24T12:20:37;7.03;;;3.40;;
54197;SDS011;40105;52.366;17.000;2023-04-24T12:23:02;5.20;;;2.88;;
54197;SDS011;40105;52.366;17.000;2023-04-24T12:25:29;13.00;;;3.47;;
54197;SDS011;40105;52.366;17.000;2023-04-24T12:30:29;7.78;;;3.17;;
54197;SDS011;40105;52.366;17.000;2023-04-24T12:32:56;7.75;;;3.17;;
54197;SDS011;40105;52.366;17.000;2023-04-24T12:35:22;13.52;;;3.30;;
54197;SDS011;40105;52.366;17.000;2023-04-24T12:37:48;5.80;;;2.85;;
54197;SDS011;40105;52.366;17.000;2023-04-24T12:40:13;8.57;;;4.63;;
54197;SDS011;40105;52.366;17.000;2023-04-24T12:42:45;9.82;;;3.17;;
54197;SDS011;40105;52.366;17.000;2023-04-24T12:45:11;7.03;;;2.85;;
54197;SDS011;40105;52.366;17.000;2023-04-24T12:47:39;16.42;;;3.33;;
54197;SDS011;40105;52.366;17.000;2023-04-24T12:50:08;9.77;;;2.58;;
54197;SDS011;40105;52.366;17.000;2023-04-24T12:52:34;11.27;;;3.00;;
54197;SDS011;40105;52.366;17.000;2023-04-24T12:55:00;18.00;;;3.00;;
54197;SDS011;40105;52.366;17.000;2023-04-24T12:57:26;11.60;;;2.65;;
54197;SDS011;40105;52.366;17.000;2023-04-24T12:59:55;9.50;;;2.40;;
54197;SDS011;40105;52.366;17.000;2023-04-24T13:02:21;3.95;;;2.22;;
54197;SDS011;40105;52.366;17.000;2023-04-24T13:04:47;11.80;;;2.30;;
54197;SDS011;40105;52.366;17.000;2023-04-24T13:07:12;5.22;;;2.30;;
54197;SDS011;40105;52.366;17.000;2023-04-24T13:09:38;7.72;;;2.70;;
54197;SDS011;40105;52.366;17.000;2023-04-24T13:12:04;5.33;;;2.03;;
54197;SDS011;40105;52.366;17.000;2023-04-24T13:14:30;6.45;;;1.90;;
54197;SDS011;40105;52.366;17.000;2023-04-24T13:16:55;16.65;;;3.13;;
54197;SDS011;40105;52.366;17.000;2023-04-24T13:19:20;4.77;;;2.30;;
54197;SDS011;40105;52.366;17.000;2023-04-24T13:21:46;12.37;;;2.70;;
54197;SDS011;40105;52.366;17.000;2023-04-24T13:24:11;4.90;;;2.20;;
54197;SDS011;40105;52.366;17.000;2023-04-24T13:26:37;5.18;;;2.55;;
54197;SDS011;40105;52.366;17.000;2023-04-24T13:29:03;15.13;;;2.47;;
54197;SDS011;40105;52.366;17.000;2023-04-24T13:31:28;3.67;;;2.10;;
54197;SDS011;40105;52.366;17.000;2023-04-24T13:33:53;8.00;;;1.87;;
54197;SDS011;40105;52.366;17.000;2023-04-24T13:36:19;12.90;;;1.87;;
54197;SDS011;40105;52.366;17.000;2023-04-24T13:38:44;8.60;;;1.75;;
54197;SDS011;40105;52.366;17.000;2023-04-24T13:41:09;3.73;;;1.60;;
54197;SDS011;40105;52.366;17.000;2023-04-24T13:43:34;4.90;;;1.50;;
54197;SDS011;40105;52.366;17.000;2023-04-24T13:46:00;3.28;;;1.60;;
54197;SDS011;40105;52.366;17.000;2023-04-24T13:48:27;3.90;;;1.45;;
54197;SDS011;40105;52.366;17.000;2023-04-24T13:50:52;4.30;;;1.70;;
54197;SDS011;40105;52.366;17.000;2023-04-24T13:53:18;31.92;;;2.45;;
54197;SDS011;40105;52.366;17.000;2023-04-24T13:55:43;10.10;;;2.13;;
54197;SDS011;40105;52.366;17.000;2023-04-24T13:58:08;5.63;;;1.83;;
54197;SDS011;40105;52.366;17.000;2023-04-24T14:00:33;9.87;;;2.17;;
54197;SDS011;40105;52.366;17.000;2023-04-24T14:02:58;1.80;;;1.10;;
54197;SDS011;40105;52.366;17.000;2023-04-24T14:05:24;3.43;;;1.10;;
54197;SDS011;40105;52.366;17.000;2023-04-24T14:07:50;3.70;;;1.80;;
54197;SDS011;40105;52.366;17.000;2023-04-24T14:10:15;3.65;;;1.58;;
54197;SDS011;40105;52.366;17.000;2023-04-24T14:12:41;10.63;;;1.73;;
54197;SDS011;40105;52.366;17.000;2023-04-24T14:15:06;7.13;;;1.80;;
54197;SDS011;40105;52.366;17.000;2023-04-24T14:17:31;5.30;;;0.90;;
54197;SDS011;40105;52.366;17.000;2023-04-24T14:19:56;3.27;;;0.90;;
54197;SDS011;40105;52.366;17.000;2023-04-24T14:22:24;3.80;;;0.95;;